Time;durP1;ratioP1;P1;durP2;ratioP2;P2;SDS_P1;SDS_P2;PMS_P1;PMS_P2;Temp;Humidity;BMP_temperature;BMP_pressure;BME280_temperature;BME280_humidity;BME280_pressure;Samples;Min_cycle;Max_cycle;Signal;HPM_P1;HPM_P2
2020/12/01 00:00:56;;;;;;;26.33;15.65;;;3.50;99.90;;;;;;5121721;28;20230;-80
2020/12/01 00:03:23;;;;;;;29.33;17.35;;;3.60;99.90;;;;;;5121066;28;20711;-78
2020/12/01 00:05:50;;;;;;;28.38;15.68;;;3.80;99.90;;;;;;5123635;28;20207;-79
2020/12/01 00:08:16;;;;;;;28.55;16.38;;;3.70;99.90;;;;;;5117327;27;20303;-80
2020/12/01 00:10:43;;;;;;;25.65;15.15;;;3.90;99.90;;;;;;5120893;28;20571;-80
2020/12/01 00:13:12;;;;;;;30.50;16.33;;;3.90;99.90;;;;;;5120841;28;20697;-78
2020/12/01 00:15:38;;;;;;;29.20;15.30;;;3.80;99.90;;;;;;5120355;28;20207;-78
2020/12/01 00:18:06;;;;;;;30.77;16.60;;;3.80;99.90;;;;;;5120289;28;20240;-78
2020/12/01 00:20:32;;;;;;;31.92;17.25;;;3.80;99.90;;;;;;5120899;28;20207;-78
2020/12/01 00:23:00;;;;;;;28.83;17.33;;;3.70;99.90;;;;;;5101968;28;20565;-79
2020/12/01 00:25:26;;;;;;;26.17;15.68;;;3.80;99.90;;;;;;5114413;28;20201;-79
2020/12/01 00:27:53;;;;;;;27.83;16.77;;;3.70;99.90;;;;;;5121141;27;20232;-81
2020/12/01 00:30:22;;;;;;;28.52;15.18;;;3.80;99.90;;;;;;5106203;28;20208;-79
2020/12/01 00:32:49;;;;;;;27.52;16.45;;;3.90;99.90;;;;;;5100449;28;20229;-79
2020/12/01 00:35:20;;;;;;;31.23;16.92;;;3.80;99.90;;;;;;5100869;28;20228;-80
2020/12/01 00:37:47;;;;;;;31.27;16.45;;;3.60;99.90;;;;;;5110253;28;20212;-79
2020/12/01 00:40:14;;;;;;;30.90;17.58;;;3.80;99.90;;;;;;5128146;28;20211;-80
2020/12/01 00:42:41;;;;;;;25.55;15.85;;;3.90;99.90;;;;;;5125018;28;20600;-79
2020/12/01 00:45:08;;;;;;;31.95;16.40;;;3.80;99.90;;;;;;5102152;28;20236;-80
2020/12/01 00:47:35;;;;;;;29.88;17.05;;;3.80;99.90;;;;;;5112645;28;20201;-79
2020/12/01 00:50:02;;;;;;;27.05;15.82;;;3.80;99.90;;;;;;5119974;28;20213;-79
2020/12/01 00:52:30;;;;;;;35.45;17.67;;;3.80;99.90;;;;;;5108613;28;20207;-79
2020/12/01 00:54:56;;;;;;;31.90;17.60;;;3.70;99.90;;;;;;5102060;28;20208;-80
2020/12/01 00:57:23;;;;;;;29.98;17.77;;;3.60;99.90;;;;;;5119127;28;20405;-80
2020/12/01 00:59:49;;;;;;;26.60;16.73;;;3.90;99.90;;;;;;5121902;28;20219;-79
2020/12/01 01:02:16;;;;;;;29.83;17.23;;;3.80;99.90;;;;;;5125219;28;20200;-79
2020/12/01 01:04:44;;;;;;;31.58;16.50;;;4.00;99.90;;;;;;5125034;28;20205;-78
2020/12/01 01:07:10;;;;;;;29.90;17.70;;;3.80;99.90;;;;;;5104673;28;20205;-78
2020/12/01 01:09:38;;;;;;;28.20;16.77;;;3.90;99.90;;;;;;5102693;28;20229;-79
2020/12/01 01:12:04;;;;;;;27.15;15.98;;;4.10;99.90;;;;;;5119662;28;20201;-79
2020/12/01 01:14:31;;;;;;;24.98;15.40;;;3.90;99.90;;;;;;5122697;28;20241;-79
2020/12/01 01:16:58;;;;;;;29.70;16.52;;;3.80;99.90;;;;;;5118658;28;20203;-80
2020/12/01 01:19:24;;;;;;;28.13;16.33;;;3.80;99.90;;;;;;5117412;28;20224;-80
2020/12/01 01:21:51;;;;;;;26.73;13.20;;;3.80;99.90;;;;;;5104137;28;20205;-80
2020/12/01 01:24:18;;;;;;;27.77;16.35;;;3.90;99.90;;;;;;5098436;28;20202;-79
2020/12/01 01:26:50;;;;;;;29.65;16.35;;;4.00;99.90;;;;;;5111136;28;20261;-76
2020/12/01 01:29:17;;;;;;;31.35;17.77;;;3.80;99.90;;;;;;5110037;28;20287;-80
2020/12/01 01:31:43;;;;;;;25.35;14.57;;;3.90;99.90;;;;;;5103961;28;20231;-80
2020/12/01 01:34:10;;;;;;;28.88;15.98;;;3.80;99.90;;;;;;5121021;28;20235;-79
2020/12/01 01:36:37;;;;;;;27.92;16.77;;;4.10;99.90;;;;;;5125670;28;20205;-79
2020/12/01 01:39:05;;;;;;;28.25;17.05;;;3.90;99.90;;;;;;5110127;28;20221;-79
2020/12/01 01:41:33;;;;;;;30.08;17.48;;;3.80;99.90;;;;;;5120111;28;20209;-79
2020/12/01 01:44:00;;;;;;;29.52;17.90;;;3.70;99.90;;;;;;5123420;28;20207;-79
2020/12/01 01:46:40;;;;;;;29.30;16.10;;;3.80;99.90;;;;;;5105801;28;20201;-79
2020/12/01 01:49:12;;;;;;;32.28;17.25;;;3.80;99.90;;;;;;5112572;28;20216;-79
2020/12/01 01:51:43;;;;;;;31.38;17.98;;;3.80;99.90;;;;;;5123071;28;20212;-78
2020/12/01 01:54:10;;;;;;;30.38;17.08;;;4.00;99.90;;;;;;5128217;28;20398;-78
2020/12/01 01:56:42;;;;;;;31.95;18.08;;;4.00;99.90;;;;;;5124791;28;20720;-79
2020/12/01 01:59:12;;;;;;;31.60;18.13;;;3.80;99.90;;;;;;5109947;28;20235;-79
2020/12/01 02:01:39;;;;;;;27.27;15.95;;;4.10;99.90;;;;;;5116991;28;20213;-78
2020/12/01 02:04:11;;;;;;;27.65;16.42;;;3.90;99.90;;;;;;5135372;28;20214;-78
2020/12/01 02:06:41;;;;;;;30.75;17.10;;;3.80;99.90;;;;;;5122980;28;20201;-79
2020/12/01 02:09:10;;;;;;;28.73;17.55;;;3.90;99.90;;;;;;5116441;28;20246;-79
2020/12/01 02:11:40;;;;;;;25.77;15.63;;;4.00;99.90;;;;;;5100602;28;20212;-79
2020/12/01 02:14:11;;;;;;;28.63;16.40;;;4.00;99.90;;;;;;5106953;28;20224;-79
2020/12/01 02:16:41;;;;;;;25.60;16.27;;;4.20;99.90;;;;;;5118229;28;20207;-79
2020/12/01 02:19:09;;;;;;;29.90;16.17;;;4.20;99.90;;;;;;5116274;28;20220;-78
2020/12/01 02:21:38;;;;;;;30.77;16.67;;;4.10;99.90;;;;;;5118135;28;20208;-79
2020/12/01 02:24:11;;;;;;;27.20;16.50;;;4.10;99.90;;;;;;5108333;28;20247;-79
2020/12/01 02:26:38;;;;;;;35.88;18.52;;;4.20;99.90;;;;;;5114755;28;20212;-79
2020/12/01 02:29:09;;;;;;;26.50;16.17;;;4.00;99.90;;;;;;5115790;28;20228;-79
2020/12/01 02:31:36;;;;;;;29.30;15.85;;;4.10;99.90;;;;;;5106745;28;20204;-78
2020/12/01 02:34:05;;;;;;;27.63;16.10;;;4.20;99.90;;;;;;5117936;28;20228;-79
2020/12/01 02:36:31;;;;;;;29.63;15.95;;;4.20;99.90;;;;;;5115491;28;20285;-79
2020/12/01 02:38:58;;;;;;;31.52;16.63;;;4.20;99.90;;;;;;5115453;28;20220;-80
2020/12/01 02:41:24;;;;;;;27.35;16.42;;;4.20;99.90;;;;;;5114731;28;20559;-80
2020/12/01 02:43:52;;;;;;;27.13;15.95;;;4.10;99.90;;;;;;5117667;28;20204;-78
2020/12/01 02:46:19;;;;;;;29.60;16.55;;;4.10;99.90;;;;;;5102868;28;20209;-79
2020/12/01 02:48:46;;;;;;;34.60;17.50;;;4.20;99.90;;;;;;5098072;28;20373;-78
2020/12/01 02:51:13;;;;;;;30.17;16.33;;;4.00;99.90;;;;;;5112875;28;20201;-79
2020/12/01 02:53:39;;;;;;;29.23;17.40;;;4.00;99.90;;;;;;5115804;28;20220;-79
2020/12/01 02:56:06;;;;;;;28.27;18.13;;;4.10;99.90;;;;;;5115186;28;20287;-79
2020/12/01 02:58:32;;;;;;;31.48;17.58;;;3.90;99.90;;;;;;5112856;28;20277;-80
2020/12/01 03:01:00;;;;;;;26.83;14.50;;;3.90;99.90;;;;;;5111134;28;20675;-79
2020/12/01 03:03:26;;;;;;;28.17;16.20;;;4.00;99.90;;;;;;5099408;28;20190;-79
2020/12/01 03:05:53;;;;;;;30.13;14.82;;;4.30;99.90;;;;;;5099222;28;20221;-79
2020/12/01 03:08:19;;;;;;;29.67;16.10;;;4.20;99.90;;;;;;5111784;28;20228;-79
2020/12/01 03:10:46;;;;;;;24.95;14.98;;;4.10;99.90;;;;;;5115283;27;20216;-79
2020/12/01 03:13:13;;;;;;;26.02;13.88;;;4.20;99.90;;;;;;5098660;28;20247;-79
2020/12/01 03:15:39;;;;;;;23.45;14.48;;;4.10;99.90;;;;;;5105138;28;20233;-79
2020/12/01 03:18:07;;;;;;;27.58;14.07;;;4.30;99.90;;;;;;5120494;27;20225;-79
2020/12/01 03:20:33;;;;;;;26.85;15.98;;;4.20;99.90;;;;;;5119917;28;20261;-79
2020/12/01 03:23:00;;;;;;;24.05;14.13;;;4.30;99.90;;;;;;5100817;28;20234;-79
2020/12/01 03:25:26;;;;;;;21.88;12.60;;;4.10;99.90;;;;;;5114416;28;20208;-79
2020/12/01 03:27:53;;;;;;;24.98;14.20;;;4.20;99.90;;;;;;5119461;28;20232;-79
2020/12/01 03:30:19;;;;;;;24.15;14.10;;;4.20;99.90;;;;;;5120378;28;20205;-80
2020/12/01 03:32:46;;;;;;;22.30;13.43;;;4.20;99.90;;;;;;5119807;28;20227;-79
2020/12/01 03:35:13;;;;;;;25.63;14.43;;;4.40;99.90;;;;;;5120405;28;20239;-78
2020/12/01 03:37:40;;;;;;;26.27;14.48;;;4.30;99.90;;;;;;5120694;28;20249;-79
2020/12/01 03:40:06;;;;;;;25.52;15.23;;;4.20;99.90;;;;;;5119728;28;20869;-78
2020/12/01 03:42:33;;;;;;;23.33;15.52;;;4.30;99.90;;;;;;5104015;28;20205;-78
2020/12/01 03:44:59;;;;;;;25.50;14.88;;;4.30;99.90;;;;;;5104305;28;20209;-77
2020/12/01 03:47:26;;;;;;;30.00;15.07;;;4.40;99.90;;;;;;5121394;28;20205;-79
2020/12/01 03:49:52;;;;;;;23.08;13.73;;;4.30;99.90;;;;;;5120153;28;20208;-79
2020/12/01 03:52:20;;;;;;;27.10;14.40;;;4.30;99.90;;;;;;5119508;27;20458;-79
2020/12/01 03:54:46;;;;;;;24.40;13.80;;;4.20;99.90;;;;;;5118875;28;20624;-77
2020/12/01 03:57:13;;;;;;;25.63;15.32;;;4.40;99.90;;;;;;5111162;28;20212;-79
2020/12/01 03:59:39;;;;;;;24.10;14.07;;;4.30;99.90;;;;;;5094722;22;20222;-74
2020/12/01 04:02:06;;;;;;;26.77;16.20;;;4.30;99.90;;;;;;5051784;28;20586;-75
2020/12/01 04:04:32;;;;;;;26.25;15.50;;;4.10;99.90;;;;;;5050726;28;20194;-75
2020/12/01 04:07:02;;;;;;;26.25;14.80;;;4.20;99.90;;;;;;5051107;28;20225;-74
2020/12/01 04:09:29;;;;;;;28.70;14.93;;;4.40;99.90;;;;;;5051129;28;20711;-74
2020/12/01 04:11:56;;;;;;;28.60;14.68;;;4.40;99.90;;;;;;5051764;28;20237;-74
2020/12/01 04:14:22;;;;;;;27.40;14.15;;;4.20;99.90;;;;;;5050852;28;20237;-74
2020/12/01 04:16:49;;;;;;;29.15;17.75;;;4.30;99.90;;;;;;5068123;28;20210;-75
2020/12/01 04:19:15;;;;;;;25.90;13.73;;;4.40;99.90;;;;;;5071388;28;20249;-75
2020/12/01 04:21:42;;;;;;;26.85;14.77;;;4.30;99.90;;;;;;5051816;28;20218;-75
2020/12/01 04:24:09;;;;;;;24.30;14.15;;;4.50;99.90;;;;;;5051288;28;20202;-74
2020/12/01 04:26:36;;;;;;;26.20;14.43;;;4.30;99.90;;;;;;5051202;28;20775;-74
2020/12/01 04:29:03;;;;;;;29.50;14.60;;;4.40;99.90;;;;;;5050866;28;20284;-75
2020/12/01 04:31:29;;;;;;;23.45;14.25;;;4.30;99.90;;;;;;5050263;28;20203;-75
2020/12/01 04:33:56;;;;;;;24.05;14.50;;;4.60;99.90;;;;;;5051269;28;20226;-75
2020/12/01 04:36:22;;;;;;;28.77;14.60;;;4.60;99.90;;;;;;5051182;28;20290;-75
2020/12/01 04:38:49;;;;;;;25.77;14.43;;;4.40;99.90;;;;;;5051159;28;20673;-75
2020/12/01 04:41:16;;;;;;;25.45;14.10;;;4.60;99.90;;;;;;5051335;28;20203;-75
2020/12/01 04:43:47;;;;;;;25.77;14.18;;;4.60;99.90;;;;;;5051403;28;20320;-75
2020/12/01 04:46:19;;;;;;;25.58;13.98;;;4.50;99.90;;;;;;5050981;28;20562;-75
2020/12/01 04:48:49;;;;;;;24.55;14.80;;;4.60;99.90;;;;;;5050630;28;20226;-75
2020/12/01 04:51:36;;;;;;;26.17;14.50;;;4.60;99.90;;;;;;5047710;28;20205;-75
2020/12/01 04:54:15;;;;;;;25.00;13.88;;;4.50;99.90;;;;;;5050516;28;20218;-75
2020/12/01 04:57:08;;;;;;;23.83;13.48;;;4.40;99.90;;;;;;5050948;28;20210;-75
2020/12/01 05:00:06;;;;;;;25.92;13.70;;;4.50;99.90;;;;;;5046916;28;20261;-75
2020/12/01 05:02:59;;;;;;;24.45;13.20;;;4.70;99.90;;;;;;5050842;28;20211;-75
2020/12/01 05:05:51;;;;;;;23.10;13.73;;;4.60;99.90;;;;;;5030776;28;20639;-75
2020/12/01 05:08:38;;;;;;;24.77;12.85;;;4.70;99.90;;;;;;5047105;28;20211;-75
2020/12/01 05:11:14;;;;;;;24.60;12.30;;;4.80;99.90;;;;;;5050900;28;20225;-75
2020/12/01 05:13:41;;;;;;;21.75;13.50;;;4.80;99.90;;;;;;5050482;28;20323;-75
2020/12/01 05:16:24;;;;;;;26.20;14.30;;;5.00;99.90;;;;;;5060454;28;20220;-76
2020/12/01 05:18:50;;;;;;;22.80;12.55;;;5.00;99.90;;;;;;5030016;28;20223;-74
2020/12/01 05:21:23;;;;;;;22.65;13.38;;;4.80;99.90;;;;;;5035602;28;20203;-74
2020/12/01 05:23:50;;;;;;;20.50;13.15;;;4.90;99.90;;;;;;5050342;28;20296;-74
2020/12/01 05:26:19;;;;;;;21.60;12.38;;;5.00;99.90;;;;;;5049994;28;20241;-74
2020/12/01 05:28:48;;;;;;;24.23;13.13;;;5.10;99.90;;;;;;5050075;28;20698;-74
2020/12/01 05:31:17;;;;;;;21.20;12.52;;;5.10;99.90;;;;;;5049782;28;20203;-75
2020/12/01 05:33:43;;;;;;;24.08;13.43;;;5.30;99.90;;;;;;5049924;28;20796;-75
2020/12/01 05:36:21;;;;;;;20.23;12.40;;;5.20;99.90;;;;;;5050026;28;20245;-75
2020/12/01 05:39:00;;;;;;;22.13;13.20;;;5.00;99.90;;;;;;5049267;28;20246;-74
2020/12/01 05:41:29;;;;;;;24.20;15.00;;;4.80;99.90;;;;;;5048933;28;20213;-74
2020/12/01 05:43:58;;;;;;;22.60;13.07;;;4.60;99.90;;;;;;5050014;28;20202;-74
2020/12/01 05:46:32;;;;;;;22.95;12.13;;;4.60;99.90;;;;;;5049489;28;20233;-74
2020/12/01 05:49:05;;;;;;;21.60;13.43;;;4.70;99.90;;;;;;5049875;28;20721;-75
2020/12/01 05:51:39;;;;;;;24.27;13.55;;;4.90;99.90;;;;;;5050089;28;20265;-75
2020/12/01 05:54:09;;;;;;;20.95;13.25;;;5.00;99.90;;;;;;5049141;28;20225;-75
2020/12/01 05:56:36;;;;;;;20.10;12.63;;;4.80;99.90;;;;;;5060812;28;20624;-75
2020/12/01 05:59:06;;;;;;;23.63;12.32;;;4.90;99.90;;;;;;5051688;28;20242;-74
2020/12/01 06:01:45;;;;;;;23.73;13.68;;;4.60;99.90;;;;;;5068413;28;20577;-74
2020/12/01 06:04:14;;;;;;;22.70;12.68;;;4.50;99.90;;;;;;5064053;28;20198;-75
2020/12/01 06:07:12;;;;;;;25.70;12.70;;;4.50;99.90;;;;;;5049580;28;20264;-75
2020/12/01 06:09:53;;;;;;;21.63;12.65;;;4.80;99.90;;;;;;5049046;28;20722;-75
2020/12/01 06:12:24;;;;;;;22.55;12.88;;;4.70;99.90;;;;;;5048909;28;20229;-75
2020/12/01 06:14:56;;;;;;;23.52;13.35;;;5.20;99.90;;;;;;5049425;28;20608;-74
2020/12/01 06:17:36;;;;;;;24.38;12.93;;;5.30;99.90;;;;;;5045656;28;20292;-75
2020/12/01 06:20:13;;;;;;;19.98;12.57;;;5.10;99.90;;;;;;5048348;28;20692;-74
2020/12/01 06:23:19;;;;;;;22.38;12.40;;;4.90;99.90;;;;;;5048682;28;20206;-75
2020/12/01 06:26:03;;;;;;;26.50;14.80;;;4.80;99.90;;;;;;5047620;28;20202;-75
2020/12/01 06:29:05;;;;;;;21.23;13.05;;;4.70;99.90;;;;;;5038158;28;20330;-75
2020/12/01 06:31:54;;;;;;;27.48;14.52;;;4.60;99.90;;;;;;5027459;28;20272;-75
2020/12/01 06:34:33;;;;;;;24.17;15.38;;;4.60;99.90;;;;;;5029281;28;20329;-75
2020/12/01 06:37:16;;;;;;;24.63;14.85;;;4.80;99.90;;;;;;5028991;28;20207;-74
2020/12/01 06:39:50;;;;;;;27.42;15.07;;;4.70;99.90;;;;;;5037838;28;20268;-75
2020/12/01 06:42:23;;;;;;;27.08;15.63;;;4.70;99.90;;;;;;5048829;28;20431;-75
2020/12/01 06:44:55;;;;;;;30.95;15.23;;;5.10;99.90;;;;;;5048780;28;20591;-74
2020/12/01 06:47:28;;;;;;;22.85;15.07;;;4.90;99.90;;;;;;5048261;28;20230;-74
2020/12/01 06:50:00;;;;;;;25.80;15.40;;;4.90;99.90;;;;;;5048206;28;20229;-75
2020/12/01 06:52:30;;;;;;;29.55;15.77;;;4.80;99.90;;;;;;5049259;28;20237;-75
2020/12/01 06:54:59;;;;;;;24.45;14.35;;;4.90;99.90;;;;;;5048639;28;20272;-76
2020/12/01 06:57:32;;;;;;;24.50;14.48;;;4.70;99.90;;;;;;5047855;28;20210;-75
2020/12/01 06:59:59;;;;;;;27.88;15.15;;;4.70;99.90;;;;;;5052311;28;20648;-75
2020/12/01 07:02:31;;;;;;;26.58;14.02;;;4.70;99.90;;;;;;5048447;28;20213;-74
2020/12/01 07:05:12;;;;;;;26.02;14.98;;;4.70;99.90;;;;;;5048052;28;20218;-75
2020/12/01 07:07:41;;;;;;;27.42;15.48;;;4.60;99.90;;;;;;5048608;28;20209;-75
2020/12/01 07:10:25;;;;;;;28.05;15.18;;;4.90;99.90;;;;;;5048415;28;20230;-75
2020/12/01 07:12:56;;;;;;;27.17;16.25;;;4.70;99.90;;;;;;5048428;28;20218;-75
2020/12/01 07:15:37;;;;;;;30.60;16.42;;;4.70;99.90;;;;;;5052686;28;20680;-75
2020/12/01 07:18:11;;;;;;;24.77;14.20;;;4.80;99.90;;;;;;5058443;28;20225;-76
2020/12/01 07:21:01;;;;;;;31.02;15.60;;;4.70;99.90;;;;;;5048906;28;20221;-76
2020/12/01 07:23:33;;;;;;;27.95;15.23;;;5.10;99.90;;;;;;5048292;28;20289;-76
2020/12/01 07:26:21;;;;;;;31.02;17.05;;;5.10;99.90;;;;;;5047586;28;20302;-75
2020/12/01 07:29:18;;;;;;;26.65;15.25;;;4.70;99.90;;;;;;5047992;28;20273;-75
2020/12/01 07:31:45;;;;;;;26.50;13.77;;;4.70;99.90;;;;;;5029446;28;20616;-75
2020/12/01 07:34:25;;;;;;;34.58;15.35;;;4.80;99.90;;;;;;5048916;28;20317;-76
2020/12/01 07:36:55;;;;;;;29.77;14.95;;;4.90;99.90;;;;;;5050773;28;20207;-76
2020/12/01 07:39:24;;;;;;;22.33;14.25;;;4.70;99.90;;;;;;5050290;28;20218;-76
2020/12/01 07:41:58;;;;;;;26.83;14.30;;;4.90;99.90;;;;;;5052364;28;20288;-76
2020/12/01 07:44:26;;;;;;;32.40;16.40;;;4.60;99.90;;;;;;5033027;28;20214;-76
2020/12/01 07:47:06;;;;;;;25.40;14.68;;;5.00;99.90;;;;;;5032208;28;20207;-75
2020/12/01 07:49:35;;;;;;;24.88;13.43;;;4.80;99.90;;;;;;5052033;28;20218;-75
2020/12/01 07:52:15;;;;;;;19.50;12.02;;;5.10;99.90;;;;;;5052668;28;20281;-75
2020/12/01 07:54:45;;;;;;;28.75;15.65;;;5.40;99.90;;;;;;5052205;28;20226;-75
2020/12/01 07:57:16;;;;;;;26.13;12.70;;;5.10;99.90;;;;;;5052059;28;20499;-77
2020/12/01 07:59:45;;;;;;;22.83;12.60;;;5.00;99.90;;;;;;5051653;28;20287;-75
2020/12/01 08:02:14;;;;;;;20.38;12.73;;;5.10;99.90;;;;;;5051685;28;20292;-74
2020/12/01 08:04:41;;;;;;;20.58;11.82;;;5.00;99.90;;;;;;5050738;28;20576;-75
2020/12/01 08:07:12;;;;;;;20.27;12.15;;;5.40;99.90;;;;;;5051386;28;20305;-75
2020/12/01 08:09:39;;;;;;;20.35;11.60;;;5.30;99.90;;;;;;5051118;28;20238;-75
2020/12/01 08:12:11;;;;;;;21.90;12.00;;;5.20;99.90;;;;;;5051304;28;20225;-75
2020/12/01 08:14:38;;;;;;;20.70;11.40;;;5.20;99.90;;;;;;5051699;28;20249;-75
2020/12/01 08:17:11;;;;;;;29.00;14.07;;;5.10;99.90;;;;;;5069102;28;20256;-74
2020/12/01 08:19:38;;;;;;;21.02;11.27;;;5.00;99.90;;;;;;5051044;28;20229;-75
2020/12/01 08:22:06;;;;;;;23.65;12.23;;;4.80;99.90;;;;;;5051375;28;20203;-75
2020/12/01 08:24:37;;;;;;;19.17;11.35;;;5.00;99.90;;;;;;5051793;28;20687;-75
2020/12/01 08:27:11;;;;;;;17.73;10.18;;;5.00;99.90;;;;;;5051817;28;20199;-75
2020/12/01 08:29:40;;;;;;;17.75;10.60;;;4.90;99.90;;;;;;5050865;28;20221;-75
2020/12/01 08:32:19;;;;;;;18.27;11.18;;;4.90;99.90;;;;;;5051196;28;20251;-75
2020/12/01 08:34:51;;;;;;;18.00;9.95;;;5.00;99.90;;;;;;5051475;28;20229;-76
2020/12/01 08:37:35;;;;;;;19.85;10.80;;;5.20;99.90;;;;;;5052114;28;20530;-75
2020/12/01 08:40:12;;;;;;;15.73;9.35;;;5.20;99.90;;;;;;5051232;28;20344;-75
2020/12/01 08:42:48;;;;;;;15.35;9.30;;;5.00;99.90;;;;;;5051481;28;20275;-75
2020/12/01 08:45:33;;;;;;;16.10;9.13;;;5.10;99.90;;;;;;5051244;28;20206;-76
2020/12/01 08:48:04;;;;;;;13.77;8.45;;;5.10;99.90;;;;;;5051286;28;20226;-75
2020/12/01 08:50:33;;;;;;;16.33;8.85;;;5.30;99.90;;;;;;5050997;28;20230;-75
2020/12/01 08:53:07;;;;;;;15.18;9.07;;;5.50;99.90;;;;;;5051535;28;20687;-75
2020/12/01 08:55:37;;;;;;;12.40;7.40;;;5.40;99.90;;;;;;5051657;28;20253;-76
2020/12/01 08:58:14;;;;;;;12.98;7.75;;;5.30;99.90;;;;;;5050838;28;20665;-76
2020/12/01 09:00:58;;;;;;;13.52;6.50;;;5.10;99.90;;;;;;5046895;28;20217;-76
2020/12/01 09:03:26;;;;;;;14.38;8.00;;;5.40;99.90;;;;;;5051257;28;20687;-76
2020/12/01 09:05:53;;;;;;;12.52;7.15;;;5.50;99.90;;;;;;5050626;28;20297;-76
2020/12/01 09:14:08;;;;;;;13.27;5.65;;;5.40;99.90;;;;;;5050648;28;20226;-77
2020/12/01 09:16:47;;;;;;;13.60;6.80;;;5.20;99.90;;;;;;5065158;28;20293;-76
2020/12/01 09:19:44;;;;;;;13.90;7.20;;;5.30;99.90;;;;;;5069436;28;20283;-76
2020/12/01 09:22:13;;;;;;;9.55;5.78;;;5.30;99.90;;;;;;5050359;28;20203;-76
2020/12/01 09:24:40;;;;;;;11.65;8.05;;;5.40;99.90;;;;;;5051076;28;20290;-76
2020/12/01 09:27:09;;;;;;;12.43;7.80;;;5.80;99.90;;;;;;5050662;28;20582;-75
2020/12/01 09:29:36;;;;;;;12.90;6.63;;;5.60;99.90;;;;;;5050169;28;20222;-76
2020/12/01 09:32:07;;;;;;;12.75;6.28;;;5.60;99.90;;;;;;5050572;28;20309;-75
2020/12/01 09:34:35;;;;;;;10.93;6.32;;;5.60;99.90;;;;;;5050225;28;20233;-75
2020/12/01 09:37:03;;;;;;;11.93;6.65;;;5.60;99.90;;;;;;5050374;28;20346;-75
2020/12/01 09:39:31;;;;;;;13.55;7.25;;;5.40;99.90;;;;;;5049697;28;20254;-75
2020/12/01 09:42:07;;;;;;;11.50;6.50;;;5.40;99.90;;;;;;5050294;28;20257;-76
2020/12/01 09:47:38;;;;;;;13.40;7.53;;;5.40;99.90;;;;;;5008336;28;20200;-76
2020/12/01 09:50:10;;;;;;;12.52;7.07;;;5.40;99.90;;;;;;5007025;28;20256;-75
2020/12/01 09:52:54;;;;;;;10.55;6.57;;;5.30;99.90;;;;;;5029474;28;20309;-75
2020/12/01 09:55:36;;;;;;;14.85;7.88;;;5.30;99.90;;;;;;5049179;28;20668;-75
2020/12/01 09:58:06;;;;;;;13.23;7.15;;;5.30;99.90;;;;;;5049422;28;20301;-76
2020/12/01 10:08:59;;;;;;;11.80;7.00;;;4.90;99.90;;;;;;5101573;22;20224;-77
2020/12/01 10:15:25;;;;;;;11.88;6.60;;;5.20;99.90;;;;;;5099050;28;20685;-78
2020/12/01 10:17:45;;;;;;;10.30;6.35;;;5.20;99.90;;;;;;5094632;28;20232;-78
2020/12/01 10:26:02;;;;;;;11.70;6.65;;;5.40;99.90;;;;;;5060084;28;20198;-78
2020/12/01 10:36:37;;;;;;;10.73;5.75;;;5.40;99.90;;;;;;5100113;28;20197;-77
2020/12/01 10:39:05;;;;;;;14.48;6.38;;;5.80;99.90;;;;;;5105443;28;20287;-79
2020/12/01 10:41:33;;;;;;;12.40;6.35;;;5.70;99.90;;;;;;5070064;28;20205;-78
2020/12/01 10:44:00;;;;;;;7.85;5.18;;;5.70;99.90;;;;;;5083415;28;20190;-79
2020/12/01 10:46:27;;;;;;;12.80;6.57;;;5.70;99.90;;;;;;5097620;28;20232;-78
2020/12/01 10:48:54;;;;;;;9.65;5.32;;;5.80;99.90;;;;;;5101184;28;20221;-77
2020/12/01 10:51:21;;;;;;;10.70;6.05;;;5.80;99.90;;;;;;5099711;28;20212;-78
2020/12/01 10:53:47;;;;;;;7.57;4.47;;;5.80;99.90;;;;;;5102829;28;20211;-77
2020/12/01 10:56:15;;;;;;;9.07;4.43;;;5.50;99.90;;;;;;5107615;28;20673;-78
2020/12/01 10:58:42;;;;;;;8.85;4.97;;;5.40;99.90;;;;;;5104504;28;20236;-78
2020/12/01 11:01:11;;;;;;;9.80;5.32;;;5.20;99.90;;;;;;5107328;28;20554;-79
2020/12/01 11:03:38;;;;;;;9.40;5.68;;;5.00;99.90;;;;;;5105272;28;20228;-79
2020/12/01 11:06:05;;;;;;;10.05;5.80;;;5.10;99.90;;;;;;5103378;28;20227;-76
2020/12/01 11:08:31;;;;;;;7.68;4.82;;;5.30;99.90;;;;;;5103741;28;20225;-78
2020/12/01 11:10:58;;;;;;;10.73;5.72;;;5.20;99.90;;;;;;5103662;28;20235;-78
2020/12/01 11:13:26;;;;;;;10.52;5.45;;;5.50;99.90;;;;;;5092161;28;20807;-78
2020/12/01 11:15:52;;;;;;;8.05;5.05;;;5.40;99.90;;;;;;5084635;28;20228;-78
2020/12/01 11:18:19;;;;;;;7.22;4.43;;;5.10;99.90;;;;;;5101446;28;20228;-78
2020/12/01 11:20:46;;;;;;;8.10;4.90;;;5.30;99.90;;;;;;5098234;28;20201;-77
2020/12/01 11:23:12;;;;;;;8.20;4.88;;;5.30;99.90;;;;;;5108099;28;20201;-78
2020/12/01 11:25:39;;;;;;;9.35;4.85;;;5.20;99.90;;;;;;5105214;28;20201;-78
2020/12/01 11:28:06;;;;;;;8.13;5.40;;;5.30;99.90;;;;;;5099806;28;20594;-78
2020/12/01 11:30:33;;;;;;;11.88;6.80;;;5.10;99.90;;;;;;5098146;28;20221;-79
2020/12/01 11:33:00;;;;;;;9.07;5.88;;;5.20;99.90;;;;;;5100758;28;20223;-79
2020/12/01 11:35:26;;;;;;;8.65;5.55;;;5.20;99.90;;;;;;5100134;28;20228;-77
2020/12/01 11:37:53;;;;;;;10.30;6.60;;;5.20;99.90;;;;;;5100390;28;20306;-79
2020/12/01 11:40:20;;;;;;;11.02;5.90;;;5.20;99.90;;;;;;5097766;28;20209;-79
2020/12/01 11:42:47;;;;;;;8.77;5.57;;;5.30;99.90;;;;;;5102334;28;20678;-78
2020/12/01 11:45:14;;;;;;;9.75;6.63;;;5.10;99.90;;;;;;5102206;28;20619;-79
2020/12/01 11:47:42;;;;;;;12.50;6.43;;;5.20;99.90;;;;;;5098496;28;20270;-78
2020/12/01 11:50:11;;;;;;;11.07;7.38;;;4.90;99.90;;;;;;5092515;28;20651;-79
2020/12/01 11:52:38;;;;;;;10.95;6.35;;;5.10;99.90;;;;;;5094828;28;20201;-78
2020/12/01 11:55:06;;;;;;;15.07;10.05;;;4.90;99.90;;;;;;5096923;28;20224;-79
2020/12/01 11:57:33;;;;;;;11.80;5.95;;;4.90;99.90;;;;;;5094604;28;20249;-78
2020/12/01 12:00:00;;;;;;;10.30;6.35;;;5.10;99.90;;;;;;5094681;28;20258;-77
2020/12/01 12:02:26;;;;;;;9.60;6.40;;;5.30;99.90;;;;;;5100690;28;20216;-78
2020/12/01 12:04:54;;;;;;;12.10;8.23;;;5.40;99.90;;;;;;5095933;28;20228;-78
2020/12/01 12:07:21;;;;;;;15.95;8.10;;;5.30;99.90;;;;;;5098204;28;20232;-78
2020/12/01 12:09:47;;;;;;;16.25;9.32;;;5.20;99.90;;;;;;5096045;28;20202;-78
2020/12/01 12:12:14;;;;;;;13.68;8.43;;;5.40;99.90;;;;;;5079393;28;20198;-79
2020/12/01 12:14:41;;;;;;;12.68;8.55;;;5.40;99.90;;;;;;5087568;28;20224;-78
2020/12/01 12:17:07;;;;;;;11.30;7.55;;;5.30;99.90;;;;;;5096431;28;20328;-79
2020/12/01 12:19:34;;;;;;;12.63;7.78;;;5.30;99.90;;;;;;5078095;28;20698;-79
2020/12/01 12:22:01;;;;;;;10.10;7.32;;;5.60;99.90;;;;;;5081499;28;20206;-78
2020/12/01 12:24:28;;;;;;;17.23;7.20;;;5.80;99.90;;;;;;5079741;28;20668;-77
2020/12/01 12:26:54;;;;;;;9.32;6.40;;;6.10;99.90;;;;;;5088879;28;20206;-78
2020/12/01 12:29:21;;;;;;;9.40;6.30;;;5.90;99.90;;;;;;5089575;28;20206;-78
2020/12/01 12:31:48;;;;;;;9.30;6.68;;;5.80;99.90;;;;;;5078776;28;20205;-77
2020/12/01 12:34:14;;;;;;;9.93;7.18;;;6.20;99.90;;;;;;5075219;28;20593;-77
2020/12/01 12:36:43;;;;;;;11.07;6.93;;;5.90;99.90;;;;;;5081259;28;20209;-79
2020/12/01 12:39:11;;;;;;;10.25;6.90;;;6.20;99.90;;;;;;5081970;28;20256;-78
2020/12/01 12:41:38;;;;;;;14.07;9.82;;;5.90;99.90;;;;;;5074235;28;20198;-78
2020/12/01 12:44:06;;;;;;;10.70;7.38;;;5.70;99.90;;;;;;5078957;28;20217;-78
2020/12/01 12:46:33;;;;;;;15.98;9.27;;;5.70;99.90;;;;;;5079550;28;20228;-78
2020/12/01 12:48:59;;;;;;;12.20;8.30;;;5.50;99.90;;;;;;5086523;28;20249;-76
2020/12/01 12:51:27;;;;;;;13.43;8.32;;;5.60;99.90;;;;;;5084838;28;20202;-77
2020/12/01 12:53:54;;;;;;;16.60;8.93;;;5.40;99.90;;;;;;5086301;28;20186;-79
2020/12/01 12:56:23;;;;;;;12.18;7.72;;;5.60;99.90;;;;;;5088681;28;20270;-78
2020/12/01 12:58:51;;;;;;;14.60;8.52;;;5.40;99.90;;;;;;5080248;28;20747;-79
2020/12/01 13:01:19;;;;;;;14.15;9.25;;;5.40;99.90;;;;;;5080087;28;20205;-79
2020/12/01 13:03:45;;;;;;;12.75;8.25;;;5.40;99.90;;;;;;5083264;28;20289;-78
2020/12/01 13:06:12;;;;;;;19.80;8.38;;;5.40;99.90;;;;;;5086234;28;20201;-78
2020/12/01 13:08:39;;;;;;;18.17;8.68;;;5.60;99.90;;;;;;5084311;28;20234;-78
2020/12/01 13:11:05;;;;;;;13.35;7.97;;;5.60;99.90;;;;;;5087348;28;20244;-77
2020/12/01 13:13:34;;;;;;;13.93;7.57;;;5.90;99.90;;;;;;5094802;28;20194;-77
2020/12/01 13:16:00;;;;;;;12.10;8.02;;;6.10;99.90;;;;;;5090316;28;20233;-76
2020/12/01 13:18:27;;;;;;;12.95;7.60;;;5.70;99.90;;;;;;5071500;28;20284;-78
2020/12/01 13:20:53;;;;;;;12.60;8.43;;;5.70;99.90;;;;;;5076382;28;20202;-78
2020/12/01 13:23:20;;;;;;;9.43;7.05;;;5.70;99.90;;;;;;5075642;28;20227;-78
2020/12/01 13:25:47;;;;;;;12.07;7.57;;;6.10;99.90;;;;;;5076857;28;20641;-78
2020/12/01 13:28:14;;;;;;;14.52;8.10;;;6.00;99.90;;;;;;5076565;28;20225;-78
2020/12/01 13:30:41;;;;;;;11.55;7.43;;;6.10;99.90;;;;;;5077446;28;20611;-78